createdAt,value
2023-02-02T00:00:27.802Z,6.20
2023-02-02T00:02:30.670Z,6.20
2023-02-02T00:04:35.369Z,6.20
2023-02-02T00:06:39.842Z,6.30
2023-02-02T00:08:42.728Z,6.30
2023-02-02T00:10:46.221Z,6.30
2023-02-02T00:12:49.193Z,6.30
2023-02-02T00:14:52.057Z,6.30
2023-02-02T00:16:56.000Z,6.30
2023-02-02T00:19:00.264Z,6.30
2023-02-02T00:21:03.071Z,6.40
2023-02-02T00:23:07.329Z,6.40
2023-02-02T00:25:10.980Z,6.40
2023-02-02T00:27:13.727Z,6.40
2023-02-02T00:29:19.666Z,6.40
2023-02-02T00:31:22.501Z,6.50
2023-02-02T00:33:25.343Z,6.50
2023-02-02T00:35:28.622Z,6.50
2023-02-02T00:37:31.538Z,6.50
2023-02-02T00:39:35.774Z,6.50
2023-02-02T00:41:38.629Z,6.60
2023-02-02T00:43:41.474Z,6.60
2023-02-02T00:45:43.735Z,6.60
2023-02-02T00:47:48.489Z,6.60
2023-02-02T00:49:51.349Z,6.60
2023-02-02T00:51:54.139Z,6.30
2023-02-02T00:53:57.146Z,6.10
2023-02-02T00:56:01.356Z,5.90
2023-02-02T00:58:04.199Z,5.70
2023-02-02T01:00:08.699Z,5.60
2023-02-02T01:02:11.826Z,5.50
2023-02-02T01:04:14.633Z,5.50
2023-02-02T01:06:20.317Z,5.40
2023-02-02T01:08:23.132Z,5.30
2023-02-02T01:10:25.945Z,5.30
2023-02-02T01:12:30.125Z,5.20
2023-02-02T01:14:32.941Z,5.20
2023-02-02T01:16:35.762Z,5.10
2023-02-02T01:18:38.824Z,5.10
2023-02-02T01:20:43.205Z,5.10
2023-02-02T01:22:46.648Z,5.00
2023-02-02T01:24:49.705Z,5.00
2023-02-02T01:26:52.589Z,5.00
2023-02-02T01:28:56.737Z,5.00
2023-02-02T01:31:00.449Z,5.00
2023-02-02T01:33:03.729Z,4.90
2023-02-02T01:35:07.419Z,4.90
2023-02-02T01:37:11.026Z,4.90
2023-02-02T01:39:13.849Z,4.80
2023-02-02T01:41:18.850Z,4.80
2023-02-02T01:43:29.784Z,4.70
2023-02-02T01:45:34.283Z,4.70
2023-02-02T01:47:40.815Z,4.60
2023-02-02T01:49:43.928Z,4.60
2023-02-02T01:51:51.528Z,4.50
2023-02-02T01:53:56.986Z,4.50
2023-02-02T01:56:00.850Z,4.40
2023-02-02T01:58:07.171Z,4.40
2023-02-02T02:00:14.267Z,4.40
2023-02-02T02:02:19.351Z,4.40
2023-02-02T02:04:23.637Z,4.30
2023-02-02T02:06:27.165Z,4.30
2023-02-02T02:08:31.949Z,4.30
2023-02-02T02:10:35.600Z,4.30
2023-02-02T02:12:38.504Z,4.30
2023-02-02T02:14:59.900Z,4.30
2023-02-02T02:17:13.971Z,4.30
2023-02-02T02:20:02.553Z,4.20
2023-02-02T02:22:27.643Z,4.30
2023-02-02T02:25:30.170Z,4.20
2023-02-02T02:28:04.910Z,4.20
2023-02-02T02:30:48.613Z,4.10
2023-02-02T02:32:59.241Z,4.10
2023-02-02T02:35:10.727Z,4.10
2023-02-02T02:37:22.309Z,4.00
2023-02-02T02:39:32.657Z,4.00
2023-02-02T02:41:42.679Z,4.00
2023-02-02T02:43:51.938Z,4.00
2023-02-02T02:45:55.539Z,4.00
2023-02-02T02:48:00.650Z,4.10
2023-02-02T02:50:04.061Z,4.10
2023-02-02T02:52:06.941Z,4.10
2023-02-02T02:54:10.412Z,4.10
2023-02-02T02:56:20.563Z,4.10
2023-02-02T02:58:37.401Z,4.20
2023-02-02T03:01:00.120Z,4.20
2023-02-02T03:03:14.175Z,4.30
2023-02-02T03:05:27.379Z,4.70
2023-02-02T03:07:36.248Z,5.10
2023-02-02T03:09:43.315Z,5.30
2023-02-02T03:11:46.796Z,5.50
2023-02-02T03:13:50.046Z,5.70
2023-02-02T03:15:53.484Z,5.90
2023-02-02T03:17:58.358Z,6.00
2023-02-02T03:20:02.767Z,6.20
2023-02-02T03:22:05.759Z,6.30
2023-02-02T03:24:11.751Z,6.40
2023-02-02T03:26:16.508Z,6.50
2023-02-02T03:28:19.971Z,6.60
2023-02-02T03:30:23.973Z,6.60
2023-02-02T03:32:27.075Z,6.70
2023-02-02T03:34:29.987Z,6.70
2023-02-02T03:36:34.415Z,6.70
2023-02-02T03:38:39.303Z,6.80
2023-02-02T03:40:45.221Z,6.70
2023-02-02T03:42:48.724Z,6.40
2023-02-02T03:44:51.707Z,6.30
2023-02-02T03:46:56.935Z,6.10
2023-02-02T03:48:59.798Z,5.90
2023-02-02T03:51:06.038Z,5.80
2023-02-02T03:53:10.657Z,5.70
2023-02-02T03:55:13.727Z,5.60
2023-02-02T03:57:16.605Z,5.40
2023-02-02T03:59:19.401Z,5.30
2023-02-02T04:01:28.968Z,5.20
2023-02-02T04:03:31.957Z,5.10
2023-02-02T04:05:37.399Z,5.00
2023-02-02T04:07:40.351Z,5.00
2023-02-02T04:09:47.480Z,4.90
2023-02-02T04:11:50.386Z,4.80
2023-02-02T04:13:53.303Z,4.80
2023-02-02T04:16:06.121Z,4.80
2023-02-02T04:18:09.077Z,4.80
2023-02-02T04:20:12.985Z,4.70
2023-02-02T04:22:15.915Z,4.70
2023-02-02T04:24:18.736Z,4.70
2023-02-02T04:26:25.460Z,4.70
2023-02-02T04:28:29.465Z,4.70
2023-02-02T04:30:32.515Z,4.70
2023-02-02T04:32:35.477Z,4.60
2023-02-02T04:34:38.544Z,4.60
2023-02-02T04:36:41.443Z,4.60
2023-02-02T04:38:44.330Z,4.60
2023-02-02T04:40:51.597Z,4.60
2023-02-02T04:42:58.160Z,4.50
2023-02-02T04:45:01.072Z,4.50
2023-02-02T04:47:04.362Z,4.50
2023-02-02T04:49:07.541Z,4.50
2023-02-02T04:51:12.982Z,4.50
2023-02-02T04:53:16.061Z,4.50
2023-02-02T04:55:19.014Z,4.50
2023-02-02T04:57:22.153Z,4.40
2023-02-02T04:59:28.857Z,4.40
2023-02-02T05:01:31.913Z,4.40
2023-02-02T05:03:34.961Z,4.40
2023-02-02T05:05:37.862Z,4.40
2023-02-02T05:07:41.143Z,4.40
2023-02-02T05:09:44.050Z,4.40
2023-02-02T05:11:46.999Z,4.40
2023-02-02T05:13:52.450Z,4.40
2023-02-02T05:15:56.827Z,4.40
2023-02-02T05:17:59.833Z,4.40
2023-02-02T05:20:02.817Z,4.50
2023-02-02T05:22:05.840Z,4.70
2023-02-02T05:24:09.127Z,5.00
2023-02-02T05:26:15.905Z,5.30
2023-02-02T05:28:18.673Z,5.50
2023-02-02T05:30:21.654Z,5.50
2023-02-02T05:32:25.805Z,5.60
2023-02-02T05:34:28.600Z,5.70
2023-02-02T05:36:31.452Z,5.70
2023-02-02T05:38:34.572Z,5.80
2023-02-02T05:40:37.405Z,5.80
2023-02-02T05:42:40.220Z,5.80
2023-02-02T05:44:42.932Z,5.90
2023-02-02T05:46:45.943Z,5.90
2023-02-02T05:48:50.080Z,5.90
2023-02-02T05:51:00.964Z,5.90
2023-02-02T05:53:03.920Z,6.00
2023-02-02T05:55:07.811Z,5.90
2023-02-02T05:57:10.513Z,6.00
2023-02-02T05:59:13.430Z,6.00
2023-02-02T06:01:17.023Z,6.00
2023-02-02T06:03:20.159Z,6.00
2023-02-02T06:05:25.114Z,6.00
2023-02-02T06:07:28.325Z,6.10
2023-02-02T06:09:31.170Z,6.00
2023-02-02T06:11:35.023Z,6.10
2023-02-02T06:13:38.252Z,6.10
2023-02-02T06:15:42.936Z,6.10
2023-02-02T06:17:46.169Z,6.10
2023-02-02T06:19:49.151Z,6.10
2023-02-02T06:21:53.539Z,6.10
2023-02-02T06:23:56.386Z,6.10
2023-02-02T06:25:59.740Z,6.10
2023-02-02T06:28:02.991Z,6.10
2023-02-02T06:30:07.572Z,6.10
2023-02-02T06:32:10.625Z,6.10
2023-02-02T06:34:14.754Z,6.10
2023-02-02T06:36:18.044Z,6.20
2023-02-02T06:42:01.998Z,6.30
2023-02-02T06:48:30.441Z,6.40
2023-02-02T06:50:55.849Z,6.50
2023-02-02T06:53:47.419Z,6.50
2023-02-02T06:56:28.719Z,6.50
2023-02-02T06:58:47.453Z,6.40
2023-02-02T07:00:56.583Z,6.40
2023-02-02T07:03:17.339Z,6.50
2023-02-02T07:08:11.026Z,6.60
2023-02-02T07:11:13.855Z,6.50
2023-02-02T07:12:38.737Z,6.60
2023-02-02T07:14:41.885Z,6.60
2023-02-02T07:16:44.575Z,6.60
2023-02-02T07:18:49.320Z,6.60
2023-02-02T07:20:52.084Z,6.70
2023-02-02T07:22:54.797Z,6.70
2023-02-02T07:24:57.522Z,6.70
2023-02-02T07:27:00.302Z,6.70
2023-02-02T07:29:04.817Z,6.70
2023-02-02T07:31:15.255Z,6.70
2023-02-02T07:33:18.041Z,6.80
2023-02-02T07:35:20.923Z,6.80
2023-02-02T07:37:23.836Z,6.80
2023-02-02T07:39:26.630Z,6.80
2023-02-02T07:41:29.357Z,6.80
2023-02-02T07:43:32.179Z,6.90
2023-02-02T07:45:37.061Z,6.80
2023-02-02T07:47:39.989Z,6.80
2023-02-02T07:49:42.744Z,6.80
2023-02-02T07:51:47.915Z,6.80
2023-02-02T07:53:52.298Z,6.80
2023-02-02T07:55:55.059Z,6.80
2023-02-02T07:57:58.861Z,6.80
2023-02-02T08:00:01.784Z,6.80
2023-02-02T08:02:05.961Z,6.80
2023-02-02T08:04:08.913Z,6.90
2023-02-02T08:06:14.891Z,6.90
2023-02-02T08:08:17.615Z,6.90
2023-02-02T08:10:20.588Z,7.00
2023-02-02T08:12:25.337Z,7.00
2023-02-02T08:14:28.622Z,7.00
2023-02-02T08:16:33.577Z,7.00
2023-02-02T08:18:38.329Z,7.10
2023-02-02T08:20:41.123Z,7.10
2023-02-02T08:22:44.006Z,7.10
2023-02-02T08:24:46.839Z,7.10
2023-02-02T08:26:49.705Z,7.10
2023-02-02T08:28:55.026Z,7.10
2023-02-02T08:30:57.779Z,7.10
2023-02-02T08:33:00.696Z,7.10
2023-02-02T08:35:05.068Z,7.10
2023-02-02T08:37:07.859Z,7.20
2023-02-02T08:39:14.221Z,7.10
2023-02-02T08:41:19.811Z,7.10
2023-02-02T08:43:22.537Z,7.20
2023-02-02T08:46:01.323Z,7.20
2023-02-02T08:47:53.838Z,7.20
2023-02-02T08:50:01.633Z,7.20
2023-02-02T08:52:05.962Z,7.20
2023-02-02T08:54:09.015Z,7.20
2023-02-02T08:56:13.631Z,7.20
2023-02-02T08:58:16.680Z,7.20
2023-02-02T09:00:20.496Z,7.20
2023-02-02T09:02:23.233Z,7.30
2023-02-02T09:04:26.398Z,7.30
2023-02-02T09:06:32.066Z,7.30
2023-02-02T09:08:36.396Z,7.30
2023-02-02T09:10:39.427Z,7.30
2023-02-02T09:12:42.196Z,7.40
2023-02-02T09:14:59.937Z,7.30
2023-02-02T09:17:02.680Z,7.30
2023-02-02T09:19:05.961Z,7.40
2023-02-02T09:21:11.132Z,7.40
2023-02-02T09:23:13.859Z,7.40
2023-02-02T09:25:17.884Z,7.40
2023-02-02T09:27:20.577Z,7.40
2023-02-02T09:29:23.314Z,7.40
2023-02-02T09:31:27.049Z,7.40
2023-02-02T09:33:30.002Z,7.40
2023-02-02T09:35:32.909Z,7.40
2023-02-02T09:37:35.829Z,7.50
2023-02-02T09:39:38.594Z,7.50
2023-02-02T09:42:19.791Z,7.50
2023-02-02T09:44:35.847Z,7.50
2023-02-02T09:46:56.598Z,7.60
2023-02-02T09:49:03.298Z,7.60
2023-02-02T09:51:13.883Z,7.70
2023-02-02T09:53:25.019Z,7.70
2023-02-02T09:55:35.586Z,7.70
2023-02-02T09:57:49.052Z,7.70
2023-02-02T09:59:54.542Z,7.70
2023-02-02T10:02:04.259Z,7.70
2023-02-02T10:04:18.171Z,7.80
2023-02-02T10:06:29.617Z,7.80
2023-02-02T10:08:37.307Z,7.80
2023-02-02T10:10:48.331Z,7.70
2023-02-02T10:13:01.105Z,7.70
2023-02-02T10:15:14.420Z,7.80
2023-02-02T10:17:34.361Z,7.80
2023-02-02T10:19:41.884Z,7.80
2023-02-02T10:21:52.214Z,7.80
2023-02-02T10:23:57.325Z,7.80
2023-02-02T10:26:08.842Z,7.80
2023-02-02T10:28:22.592Z,7.80
2023-02-02T10:30:34.974Z,7.80
2023-02-02T10:32:50.643Z,7.80
2023-02-02T10:35:17.940Z,7.80
2023-02-02T10:37:33.826Z,7.80
2023-02-02T10:39:48.179Z,7.70
2023-02-02T10:42:02.223Z,7.70
2023-02-02T10:44:21.705Z,7.70
2023-02-02T10:46:28.995Z,7.70
2023-02-02T10:48:36.243Z,7.80
2023-02-02T10:50:43.361Z,7.80
2023-02-02T10:52:50.803Z,7.80
2023-02-02T10:55:04.770Z,7.80
2023-02-02T10:57:11.544Z,7.80
2023-02-02T10:59:26.009Z,7.80
2023-02-02T11:01:29.195Z,7.70
2023-02-02T11:03:34.328Z,7.80
2023-02-02T11:05:55.412Z,7.80
2023-02-02T11:08:10.176Z,7.90
2023-02-02T11:10:13.667Z,7.90
2023-02-02T11:12:24.745Z,8.00
2023-02-02T11:14:50.304Z,8.00
2023-02-02T11:17:04.104Z,8.10
2023-02-02T11:19:23.873Z,8.10
2023-02-02T11:21:28.811Z,8.20
2023-02-02T11:23:32.344Z,8.20
2023-02-02T11:25:42.481Z,8.20
2023-02-02T11:27:46.735Z,8.20
2023-02-02T11:29:53.914Z,8.20
2023-02-02T11:31:57.557Z,8.10
2023-02-02T11:34:20.175Z,8.20
2023-02-02T11:36:24.160Z,8.10
2023-02-02T11:38:28.580Z,8.10
2023-02-02T11:40:35.293Z,8.20
2023-02-02T11:42:38.350Z,8.10
2023-02-02T11:44:48.691Z,8.10
2023-02-02T11:46:57.187Z,8.10
2023-02-02T11:49:03.245Z,8.10
2023-02-02T11:51:25.191Z,8.10
2023-02-02T11:53:31.601Z,8.20
2023-02-02T11:55:38.140Z,8.20
2023-02-02T11:58:27.363Z,8.30
2023-02-02T12:00:33.402Z,8.30
2023-02-02T12:02:40.322Z,8.30
2023-02-02T12:04:43.628Z,8.30
2023-02-02T12:06:46.938Z,8.30
2023-02-02T12:08:50.844Z,8.30
2023-02-02T12:11:00.140Z,8.30
2023-02-02T12:13:09.868Z,8.30
2023-02-02T12:15:25.994Z,8.30
2023-02-02T12:17:39.085Z,8.30
2023-02-02T12:20:01.380Z,8.30
2023-02-02T12:22:12.186Z,8.40
2023-02-02T12:24:30.309Z,8.50
2023-02-02T12:26:40.267Z,8.60
2023-02-02T12:29:05.824Z,8.60
2023-02-02T12:31:16.683Z,8.70
2023-02-02T12:33:33.200Z,8.60
2023-02-02T12:36:02.797Z,8.60
2023-02-02T12:38:19.266Z,8.60
2023-02-02T12:40:39.590Z,8.70
2023-02-02T12:42:55.656Z,8.70
2023-02-02T12:45:27.467Z,8.70
2023-02-02T12:47:38.809Z,8.70
2023-02-02T12:50:00.674Z,8.70
2023-02-02T12:52:19.485Z,8.70
2023-02-02T12:54:46.222Z,8.80
2023-02-02T12:57:00.117Z,8.80
2023-02-02T12:59:13.954Z,8.70
2023-02-02T13:01:29.600Z,8.80
2023-02-02T13:03:51.360Z,8.80
2023-02-02T13:06:09.636Z,8.80
2023-02-02T13:08:19.730Z,8.70
2023-02-02T13:10:28.522Z,8.80
2023-02-02T13:12:38.043Z,8.70
2023-02-02T13:14:46.951Z,8.70
2023-02-02T13:16:54.367Z,8.60
2023-02-02T13:19:02.171Z,8.60
2023-02-02T13:21:11.830Z,8.50
2023-02-02T13:23:22.284Z,8.50
2023-02-02T13:25:29.654Z,8.50
2023-02-02T13:27:33.967Z,8.50
2023-02-02T13:29:47.304Z,8.50
2023-02-02T13:31:57.611Z,8.50
2023-02-02T13:34:07.384Z,8.50
2023-02-02T13:36:25.661Z,8.50
2023-02-02T13:38:31.792Z,8.50
2023-02-02T13:40:38.312Z,8.50
2023-02-02T13:42:49.876Z,8.40
2023-02-02T13:44:58.190Z,8.40
2023-02-02T13:47:07.486Z,8.40
2023-02-02T13:49:13.547Z,8.40
2023-02-02T13:51:56.573Z,8.40
2023-02-02T13:54:32.418Z,8.40
2023-02-02T13:56:45.257Z,8.40
2023-02-02T13:59:18.244Z,8.40
2023-02-02T14:01:23.374Z,8.40
2023-02-02T14:03:38.379Z,8.40
2023-02-02T14:05:44.590Z,8.40
2023-02-02T14:07:58.843Z,8.40
2023-02-02T14:10:05.632Z,8.40
2023-02-02T14:12:12.357Z,8.40
2023-02-02T14:14:32.918Z,8.40
2023-02-02T14:16:51.552Z,8.40
2023-02-02T14:18:56.474Z,8.40
2023-02-02T14:20:59.659Z,8.40
2023-02-02T14:23:04.022Z,8.40
2023-02-02T14:25:41.556Z,8.40
2023-02-02T14:28:08.660Z,8.50
2023-02-02T14:30:33.706Z,8.50
2023-02-02T14:32:43.159Z,8.50
2023-02-02T14:34:46.616Z,8.60
2023-02-02T14:37:00.650Z,8.50
2023-02-02T14:39:22.622Z,8.50
2023-02-02T14:42:08.849Z,8.50
2023-02-02T14:44:13.192Z,8.40
2023-02-02T14:46:34.648Z,8.50
2023-02-02T14:48:39.134Z,8.50
2023-02-02T14:50:49.298Z,8.50
2023-02-02T14:53:06.720Z,8.50
2023-02-02T14:55:19.629Z,8.50
2023-02-02T14:57:39.838Z,8.50
2023-02-02T15:00:06.511Z,8.40
2023-02-02T15:02:36.331Z,8.40
2023-02-02T15:05:12.940Z,8.40
2023-02-02T15:07:55.824Z,8.40
2023-02-02T15:10:52.130Z,8.40
2023-02-02T15:13:07.412Z,8.40
2023-02-02T15:15:26.366Z,8.40
2023-02-02T15:17:40.093Z,8.40
2023-02-02T15:19:48.212Z,8.40
2023-02-02T15:21:53.842Z,8.40
2023-02-02T15:23:58.116Z,8.40
2023-02-02T15:26:04.865Z,8.40
2023-02-02T15:28:15.456Z,8.40
2023-02-02T15:30:20.488Z,8.40
2023-02-02T15:32:28.430Z,8.40
2023-02-02T15:34:40.327Z,8.40
2023-02-02T15:36:45.924Z,8.40
2023-02-02T15:38:55.932Z,8.40
2023-02-02T15:40:59.240Z,8.40
2023-02-02T15:43:06.406Z,8.50
2023-02-02T15:45:33.379Z,8.50
2023-02-02T15:47:42.259Z,8.50
2023-02-02T15:49:46.270Z,8.50
2023-02-02T15:51:53.394Z,8.50
2023-02-02T15:53:56.420Z,8.50
2023-02-02T15:55:59.725Z,8.50
2023-02-02T15:58:03.299Z,8.50
2023-02-02T16:00:26.026Z,8.50
2023-02-02T16:02:37.208Z,8.50
2023-02-02T16:04:42.561Z,8.40
2023-02-02T16:06:46.446Z,8.40
2023-02-02T16:08:50.813Z,8.40
2023-02-02T16:11:04.175Z,8.40
2023-02-02T16:13:07.401Z,8.40
2023-02-02T16:15:20.923Z,8.40
2023-02-02T16:17:28.381Z,8.40
2023-02-02T16:19:33.121Z,8.30
2023-02-02T16:21:39.478Z,8.30
2023-02-02T16:23:42.739Z,8.30
2023-02-02T16:25:49.572Z,8.30
2023-02-02T16:27:53.151Z,8.30
2023-02-02T16:29:59.603Z,8.30
2023-02-02T16:32:03.000Z,8.30
2023-02-02T16:34:06.200Z,8.30
2023-02-02T16:36:26.186Z,8.30
2023-02-02T16:38:34.031Z,8.30
2023-02-02T16:40:37.643Z,8.30
2023-02-02T16:42:40.901Z,8.30
2023-02-02T16:44:44.765Z,8.30
2023-02-02T16:46:51.009Z,8.40
2023-02-02T16:49:00.376Z,8.30
2023-02-02T16:51:28.033Z,8.30
2023-02-02T16:53:31.621Z,8.30
2023-02-02T16:55:50.158Z,8.30
2023-02-02T16:57:54.281Z,8.30
2023-02-02T17:00:00.868Z,8.30
2023-02-02T17:02:15.818Z,8.20
2023-02-02T17:04:23.249Z,8.20
2023-02-02T17:06:41.671Z,8.30
2023-02-02T17:08:53.630Z,8.30
2023-02-02T17:11:05.332Z,8.20
2023-02-02T17:13:37.209Z,8.20
2023-02-02T17:15:40.484Z,8.20
2023-02-02T17:17:43.757Z,8.20
2023-02-02T17:19:47.772Z,8.20
2023-02-02T17:21:54.509Z,8.20
2023-02-02T17:23:57.505Z,8.20
2023-02-02T17:26:00.689Z,8.20
2023-02-02T17:28:04.615Z,8.20
2023-02-02T17:30:08.749Z,8.20
2023-02-02T17:32:15.877Z,8.30
2023-02-02T17:34:18.882Z,8.20
2023-02-02T17:36:21.880Z,8.30
2023-02-02T17:38:27.694Z,8.30
2023-02-02T17:40:30.708Z,8.30
2023-02-02T17:42:34.754Z,8.30
2023-02-02T17:44:37.687Z,8.30
2023-02-02T17:46:40.844Z,8.30
2023-02-02T17:48:43.944Z,8.30
2023-02-02T17:50:47.376Z,8.20
2023-02-02T17:52:50.707Z,8.30
2023-02-02T17:54:54.877Z,8.30
2023-02-02T17:56:57.705Z,8.30
2023-02-02T17:59:00.647Z,8.30
2023-02-02T18:01:04.276Z,8.30
2023-02-02T18:03:12.163Z,8.30
2023-02-02T18:05:16.353Z,8.30
2023-02-02T18:07:19.242Z,8.20
2023-02-02T18:09:22.166Z,8.20
2023-02-02T18:11:26.469Z,8.20
2023-02-02T18:13:29.925Z,8.20
2023-02-02T18:15:34.158Z,8.20
2023-02-02T18:17:37.102Z,8.20
2023-02-02T18:19:44.626Z,8.20
2023-02-02T18:21:47.818Z,8.20
2023-02-02T18:23:50.627Z,8.10
2023-02-02T18:25:53.595Z,8.10
2023-02-02T18:27:58.060Z,8.10
2023-02-02T18:30:00.985Z,8.10
2023-02-02T18:32:04.438Z,8.10
2023-02-02T18:34:07.361Z,8.10
2023-02-02T18:36:13.374Z,8.10
2023-02-02T18:38:16.451Z,8.00
2023-02-02T18:40:19.494Z,8.00
2023-02-02T18:42:22.652Z,8.00
2023-02-02T18:44:26.860Z,8.00
2023-02-02T18:46:33.711Z,8.00
2023-02-02T18:48:37.257Z,8.00
2023-02-02T18:50:40.061Z,8.00
2023-02-02T18:52:42.899Z,8.00
2023-02-02T18:54:47.403Z,8.00
2023-02-02T18:56:50.933Z,8.00
2023-02-02T18:58:54.220Z,8.00
2023-02-02T19:00:58.537Z,8.00
2023-02-02T19:03:01.472Z,8.10
2023-02-02T19:05:22.160Z,8.10
2023-02-02T19:07:42.651Z,8.10
2023-02-02T19:09:45.550Z,8.10
2023-02-02T19:11:50.114Z,8.10
2023-02-02T19:13:53.190Z,8.10
2023-02-02T19:15:58.175Z,8.20
2023-02-02T19:18:01.270Z,8.20
2023-02-02T19:20:17.770Z,8.20
2023-02-02T19:22:22.316Z,8.20
2023-02-02T19:24:27.533Z,8.20
2023-02-02T19:26:31.496Z,8.10
2023-02-02T19:28:35.187Z,8.10
2023-02-02T19:30:38.753Z,8.00
2023-02-02T19:32:44.118Z,8.00
2023-02-02T19:34:48.178Z,8.00
2023-02-02T19:36:52.199Z,8.00
2023-02-02T19:38:59.808Z,8.00
2023-02-02T19:41:03.354Z,8.00
2023-02-02T19:43:16.044Z,8.00
2023-02-02T19:45:23.219Z,8.00
2023-02-02T19:47:31.834Z,8.00
2023-02-02T19:49:37.794Z,8.00
2023-02-02T19:51:45.477Z,8.00
2023-02-02T19:53:48.532Z,8.00
2023-02-02T19:55:52.551Z,8.00
2023-02-02T19:58:01.632Z,8.00
2023-02-02T20:00:19.954Z,8.00
2023-02-02T20:02:48.892Z,8.00
2023-02-02T20:05:01.057Z,8.00
2023-02-02T20:07:11.800Z,8.00
2023-02-02T20:09:18.234Z,8.00
2023-02-02T20:11:32.223Z,8.00
2023-02-02T20:13:39.570Z,8.10
2023-02-02T20:15:42.695Z,8.10
2023-02-02T20:17:45.850Z,8.10
2023-02-02T20:19:49.115Z,8.10
2023-02-02T20:21:54.129Z,8.10
2023-02-02T20:23:57.037Z,8.10
2023-02-02T20:26:03.086Z,8.10
2023-02-02T20:28:22.074Z,8.10
2023-02-02T20:30:28.214Z,8.10
2023-02-02T20:32:39.363Z,8.10
2023-02-02T20:34:46.579Z,8.10
2023-02-02T20:36:56.862Z,8.10
2023-02-02T20:39:07.893Z,8.10
2023-02-02T20:41:11.889Z,8.10
2023-02-02T20:43:15.906Z,8.20
2023-02-02T20:45:19.179Z,8.20
2023-02-02T20:47:22.437Z,8.10
2023-02-02T20:49:26.777Z,8.10
2023-02-02T20:51:29.751Z,8.10
2023-02-02T20:53:35.393Z,8.10
2023-02-02T20:55:38.675Z,8.10
2023-02-02T20:57:41.654Z,8.10
2023-02-02T20:59:44.751Z,8.00
2023-02-02T21:01:49.686Z,8.00
2023-02-02T21:03:53.061Z,8.00
2023-02-02T21:05:55.955Z,8.00
2023-02-02T21:07:58.975Z,8.00
2023-02-02T21:10:03.317Z,8.00
2023-02-02T21:12:06.748Z,8.00
2023-02-02T21:14:09.760Z,8.00
2023-02-02T21:16:13.089Z,7.90
2023-02-02T21:18:16.116Z,7.90
2023-02-02T21:20:20.054Z,7.90
2023-02-02T21:22:23.036Z,7.90
2023-02-02T21:24:27.299Z,7.90
2023-02-02T21:26:31.728Z,7.90
2023-02-02T21:28:36.536Z,7.90
2023-02-02T21:30:39.611Z,7.90
2023-02-02T21:32:42.844Z,7.80
2023-02-02T21:34:45.757Z,7.80
2023-02-02T21:36:49.496Z,7.80
2023-02-02T21:38:54.503Z,7.80
2023-02-02T21:40:58.623Z,7.80
2023-02-02T21:43:14.344Z,7.80
2023-02-02T21:45:35.609Z,7.80
2023-02-02T21:47:52.202Z,7.80
2023-02-02T21:49:56.540Z,7.80
2023-02-02T21:52:03.327Z,7.80
2023-02-02T21:54:18.925Z,7.80
2023-02-02T21:56:28.575Z,7.90
2023-02-02T21:58:38.339Z,8.00
2023-02-02T22:00:42.451Z,8.00
2023-02-02T22:02:48.972Z,8.00
2023-02-02T22:04:52.298Z,8.00
2023-02-02T22:06:59.254Z,8.10
2023-02-02T22:09:08.534Z,8.00
2023-02-02T22:11:25.206Z,8.00
2023-02-02T22:13:36.036Z,8.00
2023-02-02T22:15:39.764Z,8.00
2023-02-02T22:17:44.732Z,8.00
2023-02-02T22:19:48.942Z,8.00
2023-02-02T22:21:52.060Z,8.00
2023-02-02T22:23:55.049Z,8.00
2023-02-02T22:25:59.406Z,8.00
2023-02-02T22:28:14.498Z,8.10
2023-02-02T22:30:26.146Z,8.10
2023-02-02T22:32:29.110Z,8.20
2023-02-02T22:34:32.126Z,8.20
2023-02-02T22:36:35.179Z,8.10
2023-02-02T22:38:38.146Z,8.20
2023-02-02T22:40:41.139Z,8.10
2023-02-02T22:42:44.088Z,8.10
2023-02-02T22:44:48.183Z,8.10
2023-02-02T22:46:52.590Z,8.10
2023-02-02T22:48:55.427Z,8.10
2023-02-02T22:51:00.869Z,8.10
2023-02-02T22:53:05.092Z,8.10
2023-02-02T22:55:08.519Z,8.10
2023-02-02T22:57:11.509Z,8.10
2023-02-02T22:59:50.516Z,8.20
2023-02-02T23:01:55.027Z,8.10
2023-02-02T23:03:58.370Z,8.10
2023-02-02T23:06:01.319Z,8.10
2023-02-02T23:08:04.347Z,8.10
2023-02-02T23:10:34.930Z,8.20
2023-02-02T23:13:03.830Z,8.20
2023-02-02T23:15:07.732Z,8.10
2023-02-02T23:17:11.994Z,8.10
2023-02-02T23:19:15.946Z,8.10
2023-02-02T23:21:18.895Z,8.10
2023-02-02T23:23:22.306Z,8.10
2023-02-02T23:25:25.313Z,8.10
2023-02-02T23:27:28.562Z,8.10
2023-02-02T23:29:31.791Z,8.00
2023-02-02T23:31:34.858Z,8.00
2023-02-02T23:33:39.328Z,8.00
2023-02-02T23:35:42.197Z,7.90
2023-02-02T23:37:45.056Z,7.90
2023-02-02T23:39:48.083Z,7.90
2023-02-02T23:41:51.091Z,7.90
2023-02-02T23:43:54.483Z,7.90
2023-02-02T23:45:58.719Z,8.00
2023-02-02T23:48:01.982Z,8.00
2023-02-02T23:50:09.259Z,8.00
2023-02-02T23:52:12.827Z,8.00
2023-02-02T23:54:16.133Z,8.10
2023-02-02T23:56:19.193Z,8.10
2023-02-02T23:58:22.108Z,8.10
